createdAt,value
2023-07-22T00:01:00.899Z,18.04
2023-07-22T00:03:27.718Z,18.20
2023-07-22T00:06:06.571Z,17.95
2023-07-22T00:08:34.152Z,17.93
2023-07-22T00:11:01.333Z,17.90
2023-07-22T00:13:28.193Z,17.86
2023-07-22T00:15:55.223Z,18.22
2023-07-22T00:18:21.999Z,18.30
2023-07-22T00:20:48.717Z,17.99
2023-07-22T00:23:17.020Z,18.07
2023-07-22T00:25:44.189Z,18.29
2023-07-22T00:28:10.893Z,18.17
2023-07-22T00:30:38.064Z,18.05
2023-07-22T00:33:04.938Z,18.15
2023-07-22T00:35:33.199Z,18.21
2023-07-22T00:38:01.713Z,18.09
2023-07-22T00:40:29.099Z,18.15
2023-07-22T00:42:55.863Z,18.10
2023-07-22T00:45:22.600Z,18.06
2023-07-22T00:47:49.884Z,18.30
2023-07-22T00:50:16.792Z,18.07
2023-07-22T00:52:43.525Z,17.91
2023-07-22T00:55:10.279Z,18.10
2023-07-22T00:57:37.626Z,17.85
2023-07-22T01:00:06.270Z,17.83
2023-07-22T01:02:33.424Z,17.69
2023-07-22T01:05:00.854Z,17.93
2023-07-22T01:07:27.597Z,17.97
2023-07-22T01:09:57.266Z,17.79
2023-07-22T01:12:23.982Z,17.79
2023-07-22T01:14:50.999Z,17.63
2023-07-22T01:17:17.737Z,17.59
2023-07-22T01:19:44.463Z,17.39
2023-07-22T01:22:11.634Z,17.36
2023-07-22T01:24:39.323Z,17.22
2023-07-22T01:27:07.427Z,17.24
2023-07-22T01:29:34.165Z,17.39
2023-07-22T01:32:00.885Z,17.51
2023-07-22T01:34:28.060Z,17.27
2023-07-22T01:36:54.788Z,17.30
2023-07-22T01:39:21.530Z,17.31
2023-07-22T01:41:48.284Z,17.32
2023-07-22T01:44:15.500Z,17.65
2023-07-22T01:46:42.382Z,17.58
2023-07-22T01:49:11.933Z,17.78
2023-07-22T01:51:39.221Z,17.81
2023-07-22T01:54:06.272Z,17.22
2023-07-22T01:56:32.999Z,17.15
2023-07-22T01:58:59.811Z,17.13
2023-07-22T02:01:26.930Z,17.01
2023-07-22T02:03:54.263Z,17.02
2023-07-22T02:06:21.541Z,16.92
2023-07-22T02:08:48.273Z,16.90
2023-07-22T02:11:15.404Z,16.89
2023-07-22T02:13:42.556Z,16.82
2023-07-22T02:16:09.785Z,16.85
2023-07-22T02:18:36.580Z,16.93
2023-07-22T02:21:03.449Z,16.95
2023-07-22T02:23:30.167Z,17.08
2023-07-22T02:25:56.999Z,17.00
2023-07-22T02:28:23.781Z,16.93
2023-07-22T02:30:51.303Z,16.98
2023-07-22T02:33:18.067Z,16.90
2023-07-22T02:35:44.948Z,16.78
2023-07-22T02:38:12.913Z,16.89
2023-07-22T02:40:39.642Z,16.78
2023-07-22T02:43:06.440Z,16.94
2023-07-22T02:45:33.546Z,16.62
2023-07-22T02:48:00.307Z,16.68
2023-07-22T02:50:28.487Z,16.58
2023-07-22T02:52:55.228Z,16.61
2023-07-22T02:55:22.638Z,16.64
2023-07-22T02:57:49.657Z,16.45
2023-07-22T03:00:17.595Z,16.64
2023-07-22T03:02:44.347Z,16.69
2023-07-22T03:05:11.267Z,16.67
2023-07-22T03:07:38.623Z,16.50
2023-07-22T03:10:09.102Z,16.51
2023-07-22T03:12:37.023Z,16.66
2023-07-22T03:15:04.026Z,16.74
2023-07-22T03:17:31.084Z,16.81
2023-07-22T03:19:57.831Z,16.81
2023-07-22T03:22:24.648Z,16.65
2023-07-22T03:24:51.788Z,16.60
2023-07-22T03:27:18.585Z,16.85
2023-07-22T03:29:45.465Z,16.71
2023-07-22T03:32:13.564Z,16.85
2023-07-22T03:34:40.357Z,16.85
2023-07-22T03:37:08.265Z,17.04
2023-07-22T03:39:35.050Z,16.96
2023-07-22T03:42:01.787Z,16.70
2023-07-22T03:44:30.371Z,16.65
2023-07-22T03:46:58.341Z,16.79
2023-07-22T03:49:25.601Z,16.73
2023-07-22T03:51:52.310Z,16.77
2023-07-22T03:54:19.039Z,17.08
2023-07-22T03:56:45.943Z,17.10
2023-07-22T03:59:13.140Z,17.22
2023-07-22T04:01:40.081Z,17.12
2023-07-22T04:04:06.926Z,17.09
2023-07-22T04:06:33.801Z,17.14
2023-07-22T04:09:00.755Z,17.11
2023-07-22T04:11:27.880Z,16.81
2023-07-22T04:14:14.726Z,16.42
2023-07-22T04:17:40.430Z,16.48
2023-07-22T04:20:07.674Z,16.52
2023-07-22T04:22:35.134Z,16.50
2023-07-22T04:25:02.183Z,16.39
2023-07-22T04:27:29.275Z,16.36
2023-07-22T04:29:55.986Z,16.52
2023-07-22T04:32:23.083Z,16.23
2023-07-22T04:34:49.899Z,16.14
2023-07-22T04:37:16.707Z,16.08
2023-07-22T04:39:43.482Z,16.05
2023-07-22T04:42:10.534Z,16.21
2023-07-22T04:44:37.449Z,16.15
2023-07-22T04:47:04.463Z,16.14
2023-07-22T04:49:31.355Z,16.36
2023-07-22T04:51:58.171Z,16.24
2023-07-22T04:54:26.318Z,16.34
2023-07-22T04:56:53.038Z,16.54
2023-07-22T04:59:19.855Z,16.71
2023-07-22T05:01:46.997Z,16.96
2023-07-22T05:04:13.786Z,16.84
2023-07-22T05:06:40.952Z,16.88
2023-07-22T05:09:08.046Z,16.92
2023-07-22T05:11:34.789Z,16.91
2023-07-22T05:14:01.583Z,17.04
2023-07-22T05:16:28.600Z,17.36
2023-07-22T05:18:55.532Z,17.20
2023-07-22T05:21:22.633Z,17.09
2023-07-22T05:23:49.816Z,17.19
2023-07-22T05:26:16.520Z,17.29
2023-07-22T05:28:43.478Z,17.58
2023-07-22T05:31:10.409Z,17.48
2023-07-22T05:33:43.331Z,17.90
2023-07-22T05:36:10.568Z,18.21
2023-07-22T05:38:37.320Z,17.51
2023-07-22T05:41:04.529Z,17.61
2023-07-22T05:43:31.376Z,17.59
2023-07-22T05:45:58.290Z,17.65
2023-07-22T05:48:25.229Z,17.97
2023-07-22T05:50:52.884Z,18.31
2023-07-22T05:53:19.681Z,18.37
2023-07-22T05:55:46.810Z,18.39
2023-07-22T05:58:17.651Z,19.02
2023-07-22T06:00:44.389Z,19.48
2023-07-22T06:03:11.260Z,18.68
2023-07-22T06:05:38.044Z,18.33
2023-07-22T06:08:05.126Z,19.02
2023-07-22T06:10:32.319Z,19.16
2023-07-22T06:12:59.114Z,19.23
2023-07-22T06:15:25.880Z,18.90
2023-07-22T06:17:52.699Z,19.55
2023-07-22T06:20:19.937Z,19.71
2023-07-22T06:22:46.675Z,19.51
2023-07-22T06:25:13.500Z,20.32
2023-07-22T06:27:40.724Z,19.92
2023-07-22T06:30:07.961Z,20.17
2023-07-22T06:32:35.453Z,20.16
2023-07-22T06:35:02.534Z,20.24
2023-07-22T06:37:31.334Z,20.39
2023-07-22T06:39:58.081Z,20.55
2023-07-22T06:42:25.251Z,20.16
2023-07-22T06:44:52.064Z,20.13
2023-07-22T06:47:18.832Z,20.37
2023-07-22T06:49:47.494Z,20.10
2023-07-22T06:52:16.626Z,20.15
2023-07-22T06:54:43.383Z,19.63
2023-07-22T06:57:10.208Z,20.37
2023-07-22T06:59:37.542Z,20.50
2023-07-22T07:02:05.167Z,20.61
2023-07-22T07:04:31.903Z,20.77
2023-07-22T07:06:59.041Z,21.24
2023-07-22T07:09:25.814Z,20.98
2023-07-22T07:11:52.680Z,21.06
2023-07-22T07:14:19.449Z,21.13
2023-07-22T07:19:12.809Z,20.14
2023-07-22T07:21:39.637Z,20.33
2023-07-22T07:24:06.620Z,20.24
2023-07-22T07:26:33.819Z,20.05
2023-07-22T07:29:00.666Z,20.24
2023-07-22T07:31:27.445Z,21.00
2023-07-22T07:33:54.221Z,21.28
2023-07-22T07:36:21.013Z,21.30
2023-07-22T07:38:47.807Z,21.10
2023-07-22T07:41:14.670Z,21.36
2023-07-22T07:43:42.028Z,21.85
2023-07-22T07:46:24.810Z,21.52
2023-07-22T07:48:53.469Z,21.69
2023-07-22T07:51:21.163Z,22.02
2023-07-22T07:53:47.991Z,21.82
2023-07-22T07:56:14.938Z,22.07
2023-07-22T07:58:41.841Z,22.00
2023-07-22T08:01:08.572Z,21.95
2023-07-22T08:03:36.006Z,22.07
2023-07-22T08:06:03.547Z,21.76
2023-07-22T08:08:30.438Z,22.25
2023-07-22T08:11:04.129Z,22.21
2023-07-22T08:13:30.846Z,21.98
2023-07-22T08:15:58.440Z,22.36
2023-07-22T08:18:25.421Z,22.63
2023-07-22T08:20:53.531Z,22.91
2023-07-22T08:23:20.991Z,22.33
2023-07-22T08:25:47.982Z,22.73
2023-07-22T08:28:15.024Z,22.75
2023-07-22T08:30:41.870Z,22.98
2023-07-22T08:33:13.026Z,22.30
2023-07-22T08:35:40.858Z,22.53
2023-07-22T08:38:08.502Z,22.62
2023-07-22T08:40:38.964Z,22.91
2023-07-22T08:43:06.827Z,22.69
2023-07-22T08:45:34.366Z,22.79
2023-07-22T08:48:01.248Z,22.91
2023-07-22T08:50:31.447Z,22.99
2023-07-22T08:52:58.183Z,23.16
2023-07-22T08:55:25.533Z,23.31
2023-07-22T08:57:52.342Z,22.39
2023-07-22T09:00:19.690Z,22.86
2023-07-22T09:02:46.450Z,22.97
2023-07-22T09:05:13.473Z,22.70
2023-07-22T09:07:40.295Z,23.20
2023-07-22T09:10:09.422Z,23.16
2023-07-22T09:12:36.289Z,23.40
2023-07-22T09:15:03.036Z,23.66
2023-07-22T09:17:30.289Z,24.21
2023-07-22T09:19:57.154Z,23.83
2023-07-22T09:22:35.203Z,24.28
2023-07-22T09:25:15.220Z,24.06
2023-07-22T09:27:42.738Z,23.48
2023-07-22T09:30:28.862Z,24.03
2023-07-22T09:33:05.190Z,24.03
2023-07-22T09:35:46.031Z,24.13
2023-07-22T09:38:13.197Z,24.04
2023-07-22T09:40:43.247Z,24.52
2023-07-22T09:43:23.356Z,24.31
2023-07-22T09:45:50.341Z,24.91
2023-07-22T09:48:17.312Z,24.60
2023-07-22T09:50:44.585Z,24.73
2023-07-22T09:53:12.065Z,24.47
2023-07-22T09:55:38.773Z,24.17
2023-07-22T09:58:05.814Z,24.36
2023-07-22T10:00:55.251Z,24.05
2023-07-22T10:03:22.428Z,24.48
2023-07-22T10:05:49.370Z,24.63
2023-07-22T10:08:16.565Z,24.43
2023-07-22T10:10:43.874Z,25.02
2023-07-22T10:13:10.676Z,25.02
2023-07-22T10:15:45.761Z,24.99
2023-07-22T10:18:12.880Z,25.14
2023-07-22T10:20:40.334Z,25.19
2023-07-22T10:23:07.830Z,25.29
2023-07-22T10:25:34.769Z,25.55
2023-07-22T10:28:01.764Z,26.07
2023-07-22T10:30:28.540Z,25.33
2023-07-22T10:32:55.386Z,24.95
2023-07-22T10:35:32.144Z,25.29
2023-07-22T10:38:14.967Z,24.89
2023-07-22T10:40:49.079Z,24.54
2023-07-22T10:43:19.785Z,24.28
2023-07-22T10:45:54.620Z,24.25
2023-07-22T10:48:21.451Z,24.46
2023-07-22T10:50:49.594Z,24.13
2023-07-22T10:53:25.325Z,23.64
2023-07-22T10:56:21.755Z,24.50
2023-07-22T10:58:49.322Z,24.96
2023-07-22T11:01:32.280Z,25.06
2023-07-22T11:04:22.001Z,25.24
2023-07-22T11:06:54.938Z,25.60
2023-07-22T11:09:28.178Z,25.12
2023-07-22T11:11:56.245Z,25.29
2023-07-22T11:14:23.094Z,25.88
2023-07-22T11:16:49.868Z,25.49
2023-07-22T11:19:17.653Z,25.99
2023-07-22T11:21:45.064Z,25.79
2023-07-22T11:24:11.844Z,26.15
2023-07-22T11:26:40.244Z,26.37
2023-07-22T11:29:08.368Z,26.49
2023-07-22T11:31:41.563Z,26.15
2023-07-22T11:34:08.316Z,26.42
2023-07-22T11:36:35.113Z,26.28
2023-07-22T11:39:06.188Z,26.11
2023-07-22T11:41:33.669Z,25.87
2023-07-22T11:44:04.018Z,26.31
2023-07-22T11:46:30.819Z,26.30
2023-07-22T11:48:57.899Z,26.38
2023-07-22T11:51:26.317Z,25.83
2023-07-22T11:53:54.661Z,25.58
2023-07-22T11:56:29.242Z,26.27
2023-07-22T11:58:56.979Z,26.15
2023-07-22T12:01:24.087Z,26.50
2023-07-22T12:03:56.269Z,26.96
2023-07-22T12:06:23.169Z,26.99
2023-07-22T12:08:52.313Z,26.86
2023-07-22T12:11:23.675Z,26.95
2023-07-22T12:14:07.368Z,25.88
2023-07-22T12:16:35.168Z,26.09
2023-07-22T12:19:02.194Z,26.17
2023-07-22T12:21:29.192Z,26.60
2023-07-22T12:23:56.430Z,25.99
2023-07-22T12:26:23.607Z,26.23
2023-07-22T12:28:51.081Z,26.79
2023-07-22T12:31:18.225Z,26.43
2023-07-22T12:33:44.956Z,26.79
2023-07-22T12:36:14.454Z,26.98
2023-07-22T12:38:42.478Z,27.63
2023-07-22T12:41:09.200Z,27.79
2023-07-22T12:43:36.200Z,27.93
2023-07-22T12:46:02.950Z,27.90
2023-07-22T12:48:29.736Z,28.12
2023-07-22T12:50:56.542Z,27.85
2023-07-22T12:53:23.439Z,27.50
2023-07-22T12:55:50.282Z,27.29
2023-07-22T12:58:18.419Z,27.68
2023-07-22T13:00:45.173Z,27.02
2023-07-22T13:03:14.809Z,28.07
2023-07-22T13:05:41.620Z,27.91
2023-07-22T13:08:08.462Z,27.91
2023-07-22T13:10:37.638Z,27.32
2023-07-22T13:13:04.431Z,26.88
2023-07-22T13:15:31.226Z,26.19
2023-07-22T13:17:58.356Z,26.80
2023-07-22T13:20:25.534Z,26.10
2023-07-22T13:22:52.541Z,26.50
2023-07-22T13:25:19.413Z,27.06
2023-07-22T13:27:46.147Z,27.84
2023-07-22T13:30:14.286Z,27.89
2023-07-22T13:32:41.121Z,27.55
2023-07-22T13:35:10.775Z,27.90
2023-07-22T13:37:37.546Z,28.13
2023-07-22T13:40:07.970Z,28.26
2023-07-22T13:46:21.989Z,27.99
2023-07-22T13:48:50.424Z,28.07
2023-07-22T13:51:17.137Z,27.60
2023-07-22T13:53:45.400Z,28.43
2023-07-22T13:56:12.161Z,28.91
2023-07-22T13:58:39.301Z,29.33
2023-07-22T14:01:06.305Z,29.13
2023-07-22T14:03:33.136Z,29.09
2023-07-22T14:06:00.002Z,28.92
2023-07-22T14:08:26.754Z,28.83
2023-07-22T14:10:53.851Z,29.22
2023-07-22T14:13:22.774Z,28.53
2023-07-22T14:15:49.567Z,27.79
2023-07-22T14:18:17.155Z,28.05
2023-07-22T14:20:46.859Z,27.23
2023-07-22T14:23:13.664Z,28.37
2023-07-22T14:25:40.746Z,28.14
2023-07-22T14:28:07.794Z,28.16
2023-07-22T14:30:35.011Z,28.48
2023-07-22T14:33:02.109Z,29.08
2023-07-22T14:35:29.300Z,28.99
2023-07-22T14:37:57.276Z,28.55
2023-07-22T14:40:26.566Z,28.62
2023-07-22T14:42:53.648Z,29.38
2023-07-22T14:45:21.508Z,29.40
2023-07-22T14:47:48.712Z,28.86
2023-07-22T14:50:15.521Z,28.18
2023-07-22T14:52:42.552Z,28.36
2023-07-22T14:55:10.309Z,28.86
2023-07-22T14:57:37.233Z,29.43
2023-07-22T15:00:04.572Z,29.15
2023-07-22T15:02:31.354Z,28.57
2023-07-22T15:04:58.102Z,28.54
2023-07-22T15:08:03.994Z,29.00
2023-07-22T15:10:31.074Z,28.89
2023-07-22T15:12:58.476Z,28.46
2023-07-22T15:15:26.566Z,28.60
2023-07-22T15:17:53.305Z,29.19
2023-07-22T15:20:20.375Z,29.41
2023-07-22T15:22:47.347Z,29.74
2023-07-22T15:25:14.675Z,28.95
2023-07-22T15:27:43.262Z,29.00
2023-07-22T15:30:10.504Z,29.52
2023-07-22T15:32:37.491Z,29.26
2023-07-22T15:35:05.965Z,28.83
2023-07-22T15:41:19.642Z,29.56
2023-07-22T15:43:46.469Z,29.22
2023-07-22T15:46:13.231Z,29.41
2023-07-22T15:48:40.007Z,29.60
2023-07-22T15:51:06.718Z,29.33
2023-07-22T15:53:34.808Z,29.37
2023-07-22T15:56:15.477Z,29.16
2023-07-22T15:58:42.603Z,28.54
2023-07-22T16:01:09.706Z,28.56
2023-07-22T16:03:36.524Z,28.79
2023-07-22T16:06:03.796Z,27.96
2023-07-22T16:08:31.803Z,28.64
2023-07-22T16:10:58.535Z,28.92
2023-07-22T16:13:26.434Z,28.62
2023-07-22T16:15:56.044Z,29.27
2023-07-22T16:18:23.226Z,29.81
2023-07-22T16:20:50.002Z,29.83
2023-07-22T16:23:16.846Z,29.84
2023-07-22T16:25:43.930Z,29.62
2023-07-22T16:28:10.643Z,29.64
2023-07-22T16:30:41.064Z,28.77
2023-07-22T16:33:07.899Z,29.15
2023-07-22T16:35:35.707Z,29.15
2023-07-22T16:38:03.988Z,30.15
2023-07-22T16:40:30.749Z,29.70
2023-07-22T16:42:57.476Z,29.38
2023-07-22T16:45:24.205Z,29.03
2023-07-22T16:47:50.946Z,29.17
2023-07-22T16:50:18.351Z,29.84
2023-07-22T16:52:46.385Z,30.58
2023-07-22T16:55:18.142Z,30.70
2023-07-22T16:57:45.685Z,31.49
2023-07-22T17:00:15.545Z,30.99
2023-07-22T17:02:48.490Z,31.40
2023-07-22T17:05:15.306Z,31.12
2023-07-22T17:07:43.455Z,30.58
2023-07-22T17:10:10.384Z,30.04
2023-07-22T17:12:37.109Z,31.02
2023-07-22T17:15:08.126Z,30.62
2023-07-22T17:17:35.064Z,31.22
2023-07-22T17:20:01.894Z,31.03
2023-07-22T17:22:30.241Z,30.31
2023-07-22T17:24:56.997Z,31.89
2023-07-22T17:27:24.673Z,31.75
2023-07-22T17:29:51.793Z,31.26
2023-07-22T17:32:19.206Z,30.62
2023-07-22T17:34:48.876Z,30.43
2023-07-22T17:37:16.093Z,30.26
2023-07-22T17:39:42.853Z,30.86
2023-07-22T17:42:09.592Z,29.99
2023-07-22T17:44:37.362Z,29.76
2023-07-22T17:47:05.108Z,29.83
2023-07-22T17:49:32.532Z,29.61
2023-07-22T17:51:59.411Z,30.38
2023-07-22T17:54:29.053Z,30.27
2023-07-22T17:56:56.251Z,31.87
2023-07-22T17:59:23.117Z,32.08
2023-07-22T18:01:50.440Z,31.65
2023-07-22T18:04:17.503Z,31.46
2023-07-22T18:06:55.687Z,31.54
2023-07-22T18:09:22.420Z,30.88
2023-07-22T18:11:49.146Z,31.30
2023-07-22T18:14:15.890Z,30.93
2023-07-22T18:16:43.097Z,29.78
2023-07-22T18:19:10.225Z,29.30
2023-07-22T18:21:37.987Z,30.18
2023-07-22T18:24:04.924Z,30.34
2023-07-22T18:26:32.683Z,29.48
2023-07-22T18:28:59.409Z,29.92
2023-07-22T18:31:27.679Z,28.93
2023-07-22T18:33:56.094Z,29.30
2023-07-22T18:36:22.894Z,29.47
2023-07-22T18:38:50.002Z,28.61
2023-07-22T18:41:17.040Z,29.22
2023-07-22T18:43:44.290Z,28.14
2023-07-22T18:46:17.669Z,28.04
2023-07-22T18:48:47.493Z,27.09
2023-07-22T18:51:15.473Z,26.41
2023-07-22T18:53:42.577Z,25.74
2023-07-22T18:56:10.817Z,26.30
2023-07-22T18:58:38.935Z,25.86
2023-07-22T19:01:08.706Z,24.62
2023-07-22T19:03:36.642Z,24.70
2023-07-22T19:06:04.232Z,24.39
2023-07-22T19:08:30.973Z,23.82
2023-07-22T19:10:57.709Z,23.41
2023-07-22T19:13:25.036Z,23.63
2023-07-22T19:15:52.501Z,23.16
2023-07-22T19:18:19.349Z,23.79
2023-07-22T19:20:46.226Z,23.34
2023-07-22T19:23:12.971Z,23.02
2023-07-22T19:25:40.215Z,23.07
2023-07-22T19:28:10.016Z,23.59
2023-07-22T19:30:40.175Z,23.88
2023-07-22T19:33:08.287Z,23.05
2023-07-22T19:35:35.089Z,22.80
2023-07-22T19:38:02.306Z,22.50
2023-07-22T19:40:29.874Z,21.83
2023-07-22T19:42:56.602Z,22.03
2023-07-22T19:45:26.000Z,21.76
2023-07-22T19:47:54.120Z,21.28
2023-07-22T19:50:21.671Z,21.23
2023-07-22T19:52:49.805Z,21.46
2023-07-22T19:55:16.642Z,21.25
2023-07-22T19:57:43.388Z,21.14
2023-07-22T20:00:11.091Z,20.67
2023-07-22T20:02:38.398Z,20.64
2023-07-22T20:05:05.867Z,20.70
2023-07-22T20:07:32.652Z,20.75
2023-07-22T20:09:59.442Z,20.65
2023-07-22T20:12:26.471Z,20.36
2023-07-22T20:14:53.301Z,20.03
2023-07-22T20:17:20.392Z,20.08
2023-07-22T20:19:49.905Z,20.12
2023-07-22T20:22:17.153Z,19.94
2023-07-22T20:24:44.171Z,19.83
2023-07-22T20:27:11.423Z,20.08
2023-07-22T20:29:40.819Z,19.79
2023-07-22T20:32:23.033Z,19.79
2023-07-22T20:34:57.955Z,19.65
2023-07-22T20:37:24.781Z,19.44
2023-07-22T20:39:52.490Z,19.30
2023-07-22T20:42:22.185Z,19.28
2023-07-22T20:44:48.930Z,19.37
2023-07-22T20:47:15.685Z,19.55
2023-07-22T20:49:42.760Z,19.60
2023-07-22T20:52:09.554Z,19.52
2023-07-22T20:54:36.690Z,19.19
2023-07-22T20:57:04.058Z,18.92
2023-07-22T20:59:30.793Z,18.96
2023-07-22T21:01:57.522Z,18.94
2023-07-22T21:04:24.633Z,19.13
2023-07-22T21:06:59.325Z,19.14
2023-07-22T21:09:26.128Z,19.13
2023-07-22T21:11:52.974Z,19.07
2023-07-22T21:14:19.815Z,18.89
2023-07-22T21:16:46.545Z,18.91
2023-07-22T21:19:13.271Z,18.86
2023-07-22T21:21:41.001Z,18.89
2023-07-22T21:24:07.814Z,18.95
2023-07-22T21:26:36.160Z,18.70
2023-07-22T21:29:03.262Z,18.66
2023-07-22T21:31:30.351Z,18.77
2023-07-22T21:34:12.406Z,18.59
2023-07-22T21:37:03.260Z,18.64
2023-07-22T21:39:30.478Z,18.74
2023-07-22T21:41:57.729Z,18.73
2023-07-22T21:44:24.571Z,18.62
2023-07-22T21:46:51.722Z,18.37
2023-07-22T21:49:18.884Z,18.25
2023-07-22T21:51:45.856Z,18.29
2023-07-22T21:54:12.652Z,18.34
2023-07-22T21:56:39.371Z,18.40
2023-07-22T21:59:06.181Z,18.49
2023-07-22T22:01:35.475Z,18.45
2023-07-22T22:04:02.514Z,18.31
2023-07-22T22:06:36.322Z,18.30
2023-07-22T22:09:03.500Z,18.36
2023-07-22T22:11:30.874Z,18.19
2023-07-22T22:13:57.896Z,17.96
2023-07-22T22:16:24.989Z,18.08
2023-07-22T22:18:51.732Z,18.16
2023-07-22T22:21:18.938Z,18.04
2023-07-22T22:23:45.706Z,18.02
2023-07-22T22:26:12.450Z,17.86
2023-07-22T22:28:39.988Z,17.84
2023-07-22T22:31:07.214Z,17.92
2023-07-22T22:33:36.888Z,17.96
2023-07-22T22:36:04.113Z,17.90
2023-07-22T22:38:30.964Z,17.95
2023-07-22T22:40:57.747Z,17.93
2023-07-22T22:43:24.644Z,17.86
2023-07-22T22:45:51.442Z,17.82
2023-07-22T22:48:18.374Z,17.80
2023-07-22T22:50:45.157Z,17.79
2023-07-22T22:53:11.952Z,17.72
2023-07-22T22:55:38.851Z,17.82
2023-07-22T22:58:05.667Z,17.99
2023-07-22T23:00:32.534Z,17.93
2023-07-22T23:02:59.484Z,17.93
2023-07-22T23:05:28.414Z,17.64
2023-07-22T23:07:55.268Z,17.77
2023-07-22T23:10:22.033Z,17.74
2023-07-22T23:12:49.245Z,17.77
2023-07-22T23:15:16.947Z,17.68
2023-07-22T23:17:44.289Z,17.70
2023-07-22T23:20:12.855Z,17.73
2023-07-22T23:22:52.861Z,17.78
2023-07-22T23:25:19.945Z,17.66
2023-07-22T23:27:46.866Z,17.65
2023-07-22T23:30:13.698Z,17.63
2023-07-22T23:32:41.127Z,17.51
2023-07-22T23:35:08.286Z,17.38
2023-07-22T23:37:35.757Z,17.36
2023-07-22T23:40:03.130Z,17.27
2023-07-22T23:42:30.067Z,17.31
2023-07-22T23:44:58.174Z,17.21
2023-07-22T23:47:25.370Z,17.23
2023-07-22T23:49:52.110Z,17.20
2023-07-22T23:52:18.834Z,17.19
2023-07-22T23:54:45.937Z,17.22
2023-07-22T23:57:12.769Z,17.07
2023-07-22T23:59:39.881Z,17.24
